sensor_id;sensor_type;location;lat;lon;timestamp;temperature;humidity
41318;DHT22;27067;51.554;7.026;2023-04-06T00:02:06;15.10;87.20
41318;DHT22;27067;51.554;7.026;2023-04-06T00:04:32;15.10;87.50
41318;DHT22;27067;51.554;7.026;2023-04-06T00:06:58;15.20;87.50
41318;DHT22;27067;51.554;7.026;2023-04-06T00:09:23;15.20;87.50
41318;DHT22;27067;51.554;7.026;2023-04-06T00:11:49;15.20;87.50
41318;DHT22;27067;51.554;7.026;2023-04-06T00:14:15;15.20;87.50
41318;DHT22;27067;51.554;7.026;2023-04-06T00:16:42;15.30;87.50
41318;DHT22;27067;51.554;7.026;2023-04-06T00:19:08;15.30;87.40
41318;DHT22;27067;51.554;7.026;2023-04-06T00:21:34;15.30;87.30
41318;DHT22;27067;51.554;7.026;2023-04-06T00:23:59;15.30;87.30
41318;DHT22;27067;51.554;7.026;2023-04-06T00:26:25;15.30;87.20
41318;DHT22;27067;51.554;7.026;2023-04-06T00:28:51;15.40;87.10
41318;DHT22;27067;51.554;7.026;2023-04-06T00:31:17;15.40;87.10
41318;DHT22;27067;51.554;7.026;2023-04-06T00:33:43;15.30;87.00
41318;DHT22;27067;51.554;7.026;2023-04-06T00:36:09;15.30;87.00
41318;DHT22;27067;51.554;7.026;2023-04-06T00:38:34;15.30;87.00
41318;DHT22;27067;51.554;7.026;2023-04-06T00:41:00;15.30;86.90
41318;DHT22;27067;51.554;7.026;2023-04-06T00:43:26;15.30;87.00
41318;DHT22;27067;51.554;7.026;2023-04-06T00:45:52;15.30;87.00
41318;DHT22;27067;51.554;7.026;2023-04-06T00:48:18;15.30;87.00
41318;DHT22;27067;51.554;7.026;2023-04-06T00:50:43;15.30;87.00
41318;DHT22;27067;51.554;7.026;2023-04-06T00:53:09;15.30;87.00
41318;DHT22;27067;51.554;7.026;2023-04-06T00:55:35;15.20;86.90
41318;DHT22;27067;51.554;7.026;2023-04-06T00:58:02;15.20;86.90
41318;DHT22;27067;51.554;7.026;2023-04-06T01:00:28;15.20;87.00
41318;DHT22;27067;51.554;7.026;2023-04-06T01:02:53;15.20;87.00
41318;DHT22;27067;51.554;7.026;2023-04-06T02:39:31;15.10;87.00
41318;DHT22;27067;51.554;7.026;2023-04-06T02:41:57;15.10;87.10
41318;DHT22;27067;51.554;7.026;2023-04-06T02:44:23;15.10;87.20
41318;DHT22;27067;51.554;7.026;2023-04-06T02:46:48;15.10;87.20
41318;DHT22;27067;51.554;7.026;2023-04-06T02:49:14;15.10;87.20
41318;DHT22;27067;51.554;7.026;2023-04-06T02:51:40;15.00;87.10
41318;DHT22;27067;51.554;7.026;2023-04-06T02:54:06;15.00;87.10
41318;DHT22;27067;51.554;7.026;2023-04-06T02:56:32;15.00;87.10
41318;DHT22;27067;51.554;7.026;2023-04-06T02:58:57;15.00;87.00
41318;DHT22;27067;51.554;7.026;2023-04-06T03:01:23;15.00;86.90
41318;DHT22;27067;51.554;7.026;2023-04-06T03:03:49;15.00;86.80
41318;DHT22;27067;51.554;7.026;2023-04-06T03:06:14;15.00;86.70
41318;DHT22;27067;51.554;7.026;2023-04-06T03:08:40;15.00;86.70
41318;DHT22;27067;51.554;7.026;2023-04-06T03:11:06;15.00;86.80
41318;DHT22;27067;51.554;7.026;2023-04-06T03:13:31;15.00;86.90
41318;DHT22;27067;51.554;7.026;2023-04-06T03:15:57;15.00;87.10
41318;DHT22;27067;51.554;7.026;2023-04-06T03:18:24;14.90;87.10
41318;DHT22;27067;51.554;7.026;2023-04-06T03:20:50;14.90;87.20
41318;DHT22;27067;51.554;7.026;2023-04-06T03:23:16;14.90;87.40
41318;DHT22;27067;51.554;7.026;2023-04-06T03:25:42;15.00;87.50
41318;DHT22;27067;51.554;7.026;2023-04-06T03:28:08;15.00;87.60
41318;DHT22;27067;51.554;7.026;2023-04-06T03:30:34;15.00;87.50
41318;DHT22;27067;51.554;7.026;2023-04-06T03:33:00;15.10;87.50
41318;DHT22;27067;51.554;7.026;2023-04-06T03:35:25;15.10;87.40
41318;DHT22;27067;51.554;7.026;2023-04-06T03:37:51;15.10;87.30
41318;DHT22;27067;51.554;7.026;2023-04-06T03:40:17;15.10;87.20
41318;DHT22;27067;51.554;7.026;2023-04-06T03:42:43;15.10;87.10
41318;DHT22;27067;51.554;7.026;2023-04-06T03:45:09;15.10;87.00
41318;DHT22;27067;51.554;7.026;2023-04-06T03:47:35;15.10;87.00
41318;DHT22;27067;51.554;7.026;2023-04-06T03:50:00;15.10;86.90
41318;DHT22;27067;51.554;7.026;2023-04-06T03:52:26;15.10;86.90
41318;DHT22;27067;51.554;7.026;2023-04-06T03:54:52;15.10;86.90
41318;DHT22;27067;51.554;7.026;2023-04-06T03:57:18;15.10;86.90
41318;DHT22;27067;51.554;7.026;2023-04-06T03:59:44;15.10;86.90
41318;DHT22;27067;51.554;7.026;2023-04-06T04:02:10;15.10;86.80
41318;DHT22;27067;51.554;7.026;2023-04-06T04:04:36;15.10;86.80
41318;DHT22;27067;51.554;7.026;2023-04-06T04:07:01;15.10;87.00
41318;DHT22;27067;51.554;7.026;2023-04-06T04:09:27;15.10;87.20
41318;DHT22;27067;51.554;7.026;2023-04-06T04:11:53;15.10;87.30
41318;DHT22;27067;51.554;7.026;2023-04-06T04:14:18;15.10;87.50
41318;DHT22;27067;51.554;7.026;2023-04-06T04:16:45;15.10;87.60
41318;DHT22;27067;51.554;7.026;2023-04-06T04:19:11;15.20;87.60
41318;DHT22;27067;51.554;7.026;2023-04-06T04:21:43;15.20;87.60
41318;DHT22;27067;51.554;7.026;2023-04-06T04:24:09;15.30;87.50
41318;DHT22;27067;51.554;7.026;2023-04-06T04:26:35;15.40;87.30
41318;DHT22;27067;51.554;7.026;2023-04-06T04:29:01;15.50;87.10
41318;DHT22;27067;51.554;7.026;2023-04-06T04:31:27;15.60;86.80
41318;DHT22;27067;51.554;7.026;2023-04-06T04:33:52;15.70;86.50
41318;DHT22;27067;51.554;7.026;2023-04-06T04:36:18;15.70;86.20
41318;DHT22;27067;51.554;7.026;2023-04-06T04:38:44;15.80;86.00
41318;DHT22;27067;51.554;7.026;2023-04-06T04:41:10;15.90;85.80
41318;DHT22;27067;51.554;7.026;2023-04-06T04:43:35;16.00;85.70
41318;DHT22;27067;51.554;7.026;2023-04-06T04:46:01;16.00;85.40
41318;DHT22;27067;51.554;7.026;2023-04-06T04:48:27;16.10;85.30
41318;DHT22;27067;51.554;7.026;2023-04-06T04:50:53;16.10;85.10
41318;DHT22;27067;51.554;7.026;2023-04-06T04:53:20;16.20;85.10
41318;DHT22;27067;51.554;7.026;2023-04-06T04:55:46;16.20;84.80
41318;DHT22;27067;51.554;7.026;2023-04-06T04:58:12;16.20;84.70
41318;DHT22;27067;51.554;7.026;2023-04-06T05:00:42;16.30;84.60
41318;DHT22;27067;51.554;7.026;2023-04-06T05:03:08;16.30;84.50
41318;DHT22;27067;51.554;7.026;2023-04-06T05:05:34;16.30;84.30
41318;DHT22;27067;51.554;7.026;2023-04-06T05:08:01;16.40;84.30
41318;DHT22;27067;51.554;7.026;2023-04-06T05:10:26;16.40;84.10
41318;DHT22;27067;51.554;7.026;2023-04-06T05:12:53;16.70;84.20
41318;DHT22;27067;51.554;7.026;2023-04-06T05:15:19;16.40;83.90
41318;DHT22;27067;51.554;7.026;2023-04-06T05:17:45;16.40;83.90
41318;DHT22;27067;51.554;7.026;2023-04-06T05:20:11;16.50;83.90
41318;DHT22;27067;51.554;7.026;2023-04-06T05:22:37;16.50;83.80
41318;DHT22;27067;51.554;7.026;2023-04-06T05:25:03;16.40;83.70
41318;DHT22;27067;51.554;7.026;2023-04-06T05:27:29;16.50;83.70
41318;DHT22;27067;51.554;7.026;2023-04-06T05:29:55;16.40;83.70
41318;DHT22;27067;51.554;7.026;2023-04-06T05:32:21;16.40;83.60
41318;DHT22;27067;51.554;7.026;2023-04-06T05:34:49;16.40;83.60
41318;DHT22;27067;51.554;7.026;2023-04-06T05:37:15;16.30;83.60
41318;DHT22;27067;51.554;7.026;2023-04-06T05:39:41;16.30;83.70
41318;DHT22;27067;51.554;7.026;2023-04-06T05:42:07;16.30;83.70
41318;DHT22;27067;51.554;7.026;2023-04-06T05:44:33;16.20;83.80
41318;DHT22;27067;51.554;7.026;2023-04-06T05:46:59;16.20;83.90
41318;DHT22;27067;51.554;7.026;2023-04-06T05:49:24;16.20;84.00
41318;DHT22;27067;51.554;7.026;2023-04-06T05:51:50;16.20;84.20
41318;DHT22;27067;51.554;7.026;2023-04-06T05:54:16;16.20;84.40
41318;DHT22;27067;51.554;7.026;2023-04-06T05:56:42;16.10;84.50
41318;DHT22;27067;51.554;7.026;2023-04-06T05:59:07;16.20;84.50
41318;DHT22;27067;51.554;7.026;2023-04-06T06:01:33;16.20;84.50
41318;DHT22;27067;51.554;7.026;2023-04-06T06:04:01;16.20;84.30
41318;DHT22;27067;51.554;7.026;2023-04-06T06:06:28;16.30;84.30
41318;DHT22;27067;51.554;7.026;2023-04-06T06:08:56;16.30;84.20
41318;DHT22;27067;51.554;7.026;2023-04-06T06:11:26;16.30;84.10
41318;DHT22;27067;51.554;7.026;2023-04-06T06:13:52;16.40;84.00
41318;DHT22;27067;51.554;7.026;2023-04-06T06:16:18;16.40;83.90
41318;DHT22;27067;51.554;7.026;2023-04-06T06:18:44;16.50;83.70
41318;DHT22;27067;51.554;7.026;2023-04-06T06:21:11;16.50;83.60
41318;DHT22;27067;51.554;7.026;2023-04-06T06:23:41;16.50;83.50
41318;DHT22;27067;51.554;7.026;2023-04-06T06:26:07;16.50;83.40
41318;DHT22;27067;51.554;7.026;2023-04-06T06:28:33;16.50;83.40
41318;DHT22;27067;51.554;7.026;2023-04-06T06:30:58;16.50;83.40
41318;DHT22;27067;51.554;7.026;2023-04-06T06:33:24;16.50;83.40
41318;DHT22;27067;51.554;7.026;2023-04-06T06:35:51;16.50;83.30
41318;DHT22;27067;51.554;7.026;2023-04-06T06:38:17;16.50;83.40
41318;DHT22;27067;51.554;7.026;2023-04-06T06:40:45;16.40;83.40
41318;DHT22;27067;51.554;7.026;2023-04-06T06:43:11;16.40;83.40
41318;DHT22;27067;51.554;7.026;2023-04-06T06:45:37;16.40;83.50
41318;DHT22;27067;51.554;7.026;2023-04-06T06:48:03;16.30;83.60
41318;DHT22;27067;51.554;7.026;2023-04-06T06:50:28;16.30;83.70
41318;DHT22;27067;51.554;7.026;2023-04-06T06:52:54;16.20;83.80
41318;DHT22;27067;51.554;7.026;2023-04-06T06:55:20;16.20;84.20
41318;DHT22;27067;51.554;7.026;2023-04-06T06:57:46;16.20;84.20
41318;DHT22;27067;51.554;7.026;2023-04-06T07:00:13;16.20;84.30
41318;DHT22;27067;51.554;7.026;2023-04-06T07:02:39;16.20;84.40
41318;DHT22;27067;51.554;7.026;2023-04-06T07:05:06;16.30;84.40
41318;DHT22;27067;51.554;7.026;2023-04-06T07:07:34;16.30;84.40
41318;DHT22;27067;51.554;7.026;2023-04-06T07:10:00;16.40;84.20
41318;DHT22;27067;51.554;7.026;2023-04-06T07:12:26;16.40;84.00
41318;DHT22;27067;51.554;7.026;2023-04-06T07:14:52;16.40;83.90
41318;DHT22;27067;51.554;7.026;2023-04-06T07:17:18;16.40;83.70
41318;DHT22;27067;51.554;7.026;2023-04-06T07:19:44;16.40;83.70
41318;DHT22;27067;51.554;7.026;2023-04-06T07:22:11;16.40;83.60
41318;DHT22;27067;51.554;7.026;2023-04-06T07:24:37;16.30;83.50
41318;DHT22;27067;51.554;7.026;2023-04-06T07:27:03;16.30;83.60
41318;DHT22;27067;51.554;7.026;2023-04-06T07:29:29;16.30;83.60
41318;DHT22;27067;51.554;7.026;2023-04-06T07:31:55;16.20;83.70
41318;DHT22;27067;51.554;7.026;2023-04-06T07:34:21;16.20;83.70
41318;DHT22;27067;51.554;7.026;2023-04-06T07:36:47;16.10;83.70
41318;DHT22;27067;51.554;7.026;2023-04-06T07:39:13;16.10;83.80
41318;DHT22;27067;51.554;7.026;2023-04-06T07:41:39;16.10;84.00
41318;DHT22;27067;51.554;7.026;2023-04-06T07:44:05;16.00;84.00
41318;DHT22;27067;51.554;7.026;2023-04-06T07:46:31;16.00;84.00
41318;DHT22;27067;51.554;7.026;2023-04-06T07:48:59;16.00;84.20
41318;DHT22;27067;51.554;7.026;2023-04-06T07:51:25;15.90;84.20
41318;DHT22;27067;51.554;7.026;2023-04-06T07:53:51;15.90;84.20
41318;DHT22;27067;51.554;7.026;2023-04-06T07:56:17;15.80;84.30
41318;DHT22;27067;51.554;7.026;2023-04-06T07:58:43;15.80;85.00
41318;DHT22;27067;51.554;7.026;2023-04-06T08:01:09;15.80;84.60
41318;DHT22;27067;51.554;7.026;2023-04-06T08:03:35;15.80;84.60
41318;DHT22;27067;51.554;7.026;2023-04-06T08:06:01;15.80;84.50
41318;DHT22;27067;51.554;7.026;2023-04-06T08:08:28;15.80;84.50
41318;DHT22;27067;51.554;7.026;2023-04-06T08:10:54;15.80;84.30
41318;DHT22;27067;51.554;7.026;2023-04-06T08:13:20;15.90;84.10
41318;DHT22;27067;51.554;7.026;2023-04-06T08:15:46;15.90;83.90
41318;DHT22;27067;51.554;7.026;2023-04-06T08:18:12;15.90;83.70
41318;DHT22;27067;51.554;7.026;2023-04-06T08:20:39;15.90;83.40
41318;DHT22;27067;51.554;7.026;2023-04-06T08:23:08;15.90;83.30
41318;DHT22;27067;51.554;7.026;2023-04-06T08:25:36;15.80;83.20
41318;DHT22;27067;51.554;7.026;2023-04-06T08:28:03;15.90;83.20
41318;DHT22;27067;51.554;7.026;2023-04-06T08:30:29;15.80;83.20
41318;DHT22;27067;51.554;7.026;2023-04-06T08:32:55;15.80;83.30
41318;DHT22;27067;51.554;7.026;2023-04-06T08:35:20;15.80;83.30
41318;DHT22;27067;51.554;7.026;2023-04-06T08:37:46;15.70;83.30
41318;DHT22;27067;51.554;7.026;2023-04-06T08:40:13;15.70;83.40
41318;DHT22;27067;51.554;7.026;2023-04-06T08:42:46;15.70;83.50
41318;DHT22;27067;51.554;7.026;2023-04-06T08:45:16;15.60;83.60
41318;DHT22;27067;51.554;7.026;2023-04-06T08:47:43;15.60;83.70
41318;DHT22;27067;51.554;7.026;2023-04-06T08:50:10;15.50;83.70
41318;DHT22;27067;51.554;7.026;2023-04-06T08:52:40;15.50;83.90
41318;DHT22;27067;51.554;7.026;2023-04-06T08:55:06;15.50;83.90
41318;DHT22;27067;51.554;7.026;2023-04-06T08:57:33;15.50;84.10
41318;DHT22;27067;51.554;7.026;2023-04-06T09:00:01;15.40;84.10
41318;DHT22;27067;51.554;7.026;2023-04-06T09:02:27;15.40;84.10
41318;DHT22;27067;51.554;7.026;2023-04-06T09:04:54;15.40;84.20
41318;DHT22;27067;51.554;7.026;2023-04-06T09:07:21;15.30;84.40
41318;DHT22;27067;51.554;7.026;2023-04-06T09:09:47;15.30;84.60
41318;DHT22;27067;51.554;7.026;2023-04-06T09:12:31;15.30;84.80
41318;DHT22;27067;51.554;7.026;2023-04-06T09:14:58;15.30;85.10
41318;DHT22;27067;51.554;7.026;2023-04-06T09:17:28;15.30;85.30
41318;DHT22;27067;51.554;7.026;2023-04-06T09:19:55;15.30;85.40
41318;DHT22;27067;51.554;7.026;2023-04-06T09:22:22;15.30;85.50
41318;DHT22;27067;51.554;7.026;2023-04-06T09:24:52;15.30;85.60
41318;DHT22;27067;51.554;7.026;2023-04-06T09:27:39;15.30;85.60
41318;DHT22;27067;51.554;7.026;2023-04-06T09:30:05;15.30;85.50
41318;DHT22;27067;51.554;7.026;2023-04-06T09:32:31;15.40;85.50
41318;DHT22;27067;51.554;7.026;2023-04-06T09:35:08;15.40;85.50
41318;DHT22;27067;51.554;7.026;2023-04-06T09:37:34;15.40;85.40
41318;DHT22;27067;51.554;7.026;2023-04-06T09:40:07;15.40;85.40
41318;DHT22;27067;51.554;7.026;2023-04-06T09:42:34;15.40;85.30
41318;DHT22;27067;51.554;7.026;2023-04-06T09:45:01;15.40;85.30
41318;DHT22;27067;51.554;7.026;2023-04-06T09:47:26;15.40;85.30
41318;DHT22;27067;51.554;7.026;2023-04-06T09:49:57;15.40;85.40
41318;DHT22;27067;51.554;7.026;2023-04-06T09:52:48;15.30;85.30
41318;DHT22;27067;51.554;7.026;2023-04-06T09:55:20;15.30;85.40
41318;DHT22;27067;51.554;7.026;2023-04-06T09:58:06;15.30;85.50
41318;DHT22;27067;51.554;7.026;2023-04-06T10:00:40;15.30;85.50
41318;DHT22;27067;51.554;7.026;2023-04-06T10:03:31;15.30;85.50
41318;DHT22;27067;51.554;7.026;2023-04-06T10:06:03;15.20;85.50
41318;DHT22;27067;51.554;7.026;2023-04-06T10:08:32;15.20;85.50
41318;DHT22;27067;51.554;7.026;2023-04-06T10:10:58;15.20;85.50
41318;DHT22;27067;51.554;7.026;2023-04-06T10:13:26;15.20;85.60
41318;DHT22;27067;51.554;7.026;2023-04-06T10:15:52;15.20;85.60
41318;DHT22;27067;51.554;7.026;2023-04-06T10:18:20;15.20;85.60
41318;DHT22;27067;51.554;7.026;2023-04-06T10:21:06;15.20;85.60
41318;DHT22;27067;51.554;7.026;2023-04-06T10:23:41;15.10;85.60
41318;DHT22;27067;51.554;7.026;2023-04-06T10:26:17;15.20;85.70
41318;DHT22;27067;51.554;7.026;2023-04-06T10:28:47;15.10;85.60
41318;DHT22;27067;51.554;7.026;2023-04-06T10:31:13;15.10;85.60
41318;DHT22;27067;51.554;7.026;2023-04-06T10:33:39;15.10;85.70
41318;DHT22;27067;51.554;7.026;2023-04-06T10:36:27;15.10;85.70
41318;DHT22;27067;51.554;7.026;2023-04-06T10:39:02;15.10;85.80
41318;DHT22;27067;51.554;7.026;2023-04-06T10:41:46;15.10;85.80
41318;DHT22;27067;51.554;7.026;2023-04-06T10:44:24;15.10;85.90
41318;DHT22;27067;51.554;7.026;2023-04-06T10:46:57;15.00;85.90
41318;DHT22;27067;51.554;7.026;2023-04-06T10:49:26;15.00;86.00
41318;DHT22;27067;51.554;7.026;2023-04-06T10:51:54;15.00;86.00
41318;DHT22;27067;51.554;7.026;2023-04-06T10:54:24;15.00;86.20
41318;DHT22;27067;51.554;7.026;2023-04-06T10:56:51;15.00;86.30
41318;DHT22;27067;51.554;7.026;2023-04-06T10:59:21;15.00;86.40
41318;DHT22;27067;51.554;7.026;2023-04-06T11:01:48;15.10;86.40
41318;DHT22;27067;51.554;7.026;2023-04-06T11:04:17;15.10;86.40
41318;DHT22;27067;51.554;7.026;2023-04-06T11:06:47;15.10;86.40
41318;DHT22;27067;51.554;7.026;2023-04-06T11:09:23;15.10;86.30
41318;DHT22;27067;51.554;7.026;2023-04-06T11:11:50;15.20;86.20
41318;DHT22;27067;51.554;7.026;2023-04-06T11:17:46;15.20;86.00
41318;DHT22;27067;51.554;7.026;2023-04-06T11:20:34;15.20;85.90
41318;DHT22;27067;51.554;7.026;2023-04-06T11:23:03;15.30;85.90
41318;DHT22;27067;51.554;7.026;2023-04-06T11:26:04;15.20;86.00
41318;DHT22;27067;51.554;7.026;2023-04-06T11:28:36;15.20;85.90
41318;DHT22;27067;51.554;7.026;2023-04-06T11:31:02;15.20;85.90
41318;DHT22;27067;51.554;7.026;2023-04-06T11:33:28;15.20;85.90
41318;DHT22;27067;51.554;7.026;2023-04-06T11:36:00;15.20;85.90
41318;DHT22;27067;51.554;7.026;2023-04-06T11:41:24;15.20;86.00
41318;DHT22;27067;51.554;7.026;2023-04-06T11:46:53;15.10;86.00
41318;DHT22;27067;51.554;7.026;2023-04-06T11:49:29;15.20;86.10
41318;DHT22;27067;51.554;7.026;2023-04-06T11:52:02;15.10;86.70
41318;DHT22;27067;51.554;7.026;2023-04-06T11:55:09;15.10;86.20
41318;DHT22;27067;51.554;7.026;2023-04-06T11:57:39;15.10;86.40
41318;DHT22;27067;51.554;7.026;2023-04-06T12:00:09;15.10;86.40
41318;DHT22;27067;51.554;7.026;2023-04-06T12:03:06;15.10;86.40
41318;DHT22;27067;51.554;7.026;2023-04-06T12:08:32;15.90;86.70
41318;DHT22;27067;51.554;7.026;2023-04-06T12:11:17;15.00;86.60
41318;DHT22;27067;51.554;7.026;2023-04-06T12:13:45;15.00;86.60
41318;DHT22;27067;51.554;7.026;2023-04-06T12:16:11;15.00;86.30
41318;DHT22;27067;51.554;7.026;2023-04-06T12:18:42;15.10;86.40
41318;DHT22;27067;51.554;7.026;2023-04-06T12:21:11;15.00;86.40
41318;DHT22;27067;51.554;7.026;2023-04-06T12:23:42;15.00;86.40
41318;DHT22;27067;51.554;7.026;2023-04-06T12:26:08;15.00;86.40
41318;DHT22;27067;51.554;7.026;2023-04-06T12:28:53;15.00;86.50
41318;DHT22;27067;51.554;7.026;2023-04-06T12:31:28;15.00;86.50
41318;DHT22;27067;51.554;7.026;2023-04-06T12:33:57;15.00;86.50
41318;DHT22;27067;51.554;7.026;2023-04-06T12:36:23;15.00;86.70
41318;DHT22;27067;51.554;7.026;2023-04-06T12:39:22;15.00;86.70
41318;DHT22;27067;51.554;7.026;2023-04-06T12:41:54;15.00;86.70
41318;DHT22;27067;51.554;7.026;2023-04-06T12:44:24;14.90;87.10
41318;DHT22;27067;51.554;7.026;2023-04-06T12:46:50;14.90;87.10
41318;DHT22;27067;51.554;7.026;2023-04-06T12:49:16;14.90;87.30
41318;DHT22;27067;51.554;7.026;2023-04-06T12:51:44;15.00;87.40
41318;DHT22;27067;51.554;7.026;2023-04-06T12:54:10;15.00;87.40
41318;DHT22;27067;51.554;7.026;2023-04-06T12:56:40;15.10;87.30
41318;DHT22;27067;51.554;7.026;2023-04-06T12:59:06;15.00;87.20
41318;DHT22;27067;51.554;7.026;2023-04-06T13:01:32;15.10;87.10
41318;DHT22;27067;51.554;7.026;2023-04-06T13:03:58;15.10;87.00
41318;DHT22;27067;51.554;7.026;2023-04-06T13:06:24;15.20;86.90
41318;DHT22;27067;51.554;7.026;2023-04-06T13:08:53;15.20;86.90
41318;DHT22;27067;51.554;7.026;2023-04-06T13:11:18;15.20;86.80
41318;DHT22;27067;51.554;7.026;2023-04-06T13:13:53;15.20;86.80
41318;DHT22;27067;51.554;7.026;2023-04-06T13:16:24;15.20;86.90
41318;DHT22;27067;51.554;7.026;2023-04-06T13:18:53;15.20;86.70
41318;DHT22;27067;51.554;7.026;2023-04-06T13:21:22;15.20;86.90
41318;DHT22;27067;51.554;7.026;2023-04-06T13:23:48;15.20;87.00
41318;DHT22;27067;51.554;7.026;2023-04-06T13:26:25;15.20;86.80
41318;DHT22;27067;51.554;7.026;2023-04-06T13:28:51;15.10;86.80
41318;DHT22;27067;51.554;7.026;2023-04-06T13:31:17;15.10;86.80
41318;DHT22;27067;51.554;7.026;2023-04-06T13:33:45;15.10;86.80
41318;DHT22;27067;51.554;7.026;2023-04-06T13:36:11;15.10;86.90
41318;DHT22;27067;51.554;7.026;2023-04-06T13:38:37;15.10;86.90
41318;DHT22;27067;51.554;7.026;2023-04-06T13:41:04;15.10;86.90
41318;DHT22;27067;51.554;7.026;2023-04-06T13:43:33;15.10;86.90
41318;DHT22;27067;51.554;7.026;2023-04-06T13:46:05;15.10;87.00
41318;DHT22;27067;51.554;7.026;2023-04-06T13:48:32;15.10;87.00
41318;DHT22;27067;51.554;7.026;2023-04-06T13:50:58;15.10;87.00
41318;DHT22;27067;51.554;7.026;2023-04-06T13:53:41;15.10;87.00
41318;DHT22;27067;51.554;7.026;2023-04-06T13:56:10;15.10;87.00
41318;DHT22;27067;51.554;7.026;2023-04-06T13:58:36;15.00;87.00
41318;DHT22;27067;51.554;7.026;2023-04-06T14:01:06;15.00;87.00
41318;DHT22;27067;51.554;7.026;2023-04-06T14:03:33;15.00;87.00
41318;DHT22;27067;51.554;7.026;2023-04-06T14:06:11;15.00;87.00
41318;DHT22;27067;51.554;7.026;2023-04-06T14:08:37;15.00;87.10
41318;DHT22;27067;51.554;7.026;2023-04-06T14:11:15;15.00;87.10
41318;DHT22;27067;51.554;7.026;2023-04-06T14:13:44;15.00;87.30
41318;DHT22;27067;51.554;7.026;2023-04-06T14:16:13;15.00;87.30
41318;DHT22;27067;51.554;7.026;2023-04-06T14:18:38;15.00;87.50
41318;DHT22;27067;51.554;7.026;2023-04-06T14:21:04;15.00;87.50
41318;DHT22;27067;51.554;7.026;2023-04-06T14:23:30;15.00;87.60
41318;DHT22;27067;51.554;7.026;2023-04-06T14:26:07;15.00;87.60
41318;DHT22;27067;51.554;7.026;2023-04-06T14:28:34;15.00;87.70
41318;DHT22;27067;51.554;7.026;2023-04-06T14:31:00;15.10;87.70
41318;DHT22;27067;51.554;7.026;2023-04-06T14:33:26;15.10;87.70
41318;DHT22;27067;51.554;7.026;2023-04-06T14:35:53;15.10;87.50
41318;DHT22;27067;51.554;7.026;2023-04-06T14:38:18;15.10;87.40
41318;DHT22;27067;51.554;7.026;2023-04-06T14:40:44;15.20;87.40
41318;DHT22;27067;51.554;7.026;2023-04-06T14:43:10;15.20;87.30
41318;DHT22;27067;51.554;7.026;2023-04-06T14:45:36;15.20;87.20
41318;DHT22;27067;51.554;7.026;2023-04-06T14:48:03;15.20;87.10
41318;DHT22;27067;51.554;7.026;2023-04-06T14:50:31;15.20;87.10
41318;DHT22;27067;51.554;7.026;2023-04-06T14:52:57;15.20;87.10
41318;DHT22;27067;51.554;7.026;2023-04-06T14:55:23;15.20;87.00
41318;DHT22;27067;51.554;7.026;2023-04-06T14:57:48;15.20;87.10
41318;DHT22;27067;51.554;7.026;2023-04-06T15:00:14;15.20;87.10
41318;DHT22;27067;51.554;7.026;2023-04-06T15:02:40;15.20;87.10
41318;DHT22;27067;51.554;7.026;2023-04-06T15:05:08;15.20;87.10
41318;DHT22;27067;51.554;7.026;2023-04-06T15:07:34;15.10;87.10
41318;DHT22;27067;51.554;7.026;2023-04-06T15:10:04;15.20;87.30
41318;DHT22;27067;51.554;7.026;2023-04-06T15:12:30;15.10;87.30
41318;DHT22;27067;51.554;7.026;2023-04-06T15:14:57;15.10;87.50
41318;DHT22;27067;51.554;7.026;2023-04-06T15:17:23;15.20;87.70
41318;DHT22;27067;51.554;7.026;2023-04-06T15:19:50;15.30;87.90
41318;DHT22;27067;51.554;7.026;2023-04-06T15:22:16;15.30;87.90
41318;DHT22;27067;51.554;7.026;2023-04-06T15:24:42;15.40;87.90
41318;DHT22;27067;51.554;7.026;2023-04-06T15:27:07;15.50;87.70
41318;DHT22;27067;51.554;7.026;2023-04-06T15:29:33;15.60;87.50
41318;DHT22;27067;51.554;7.026;2023-04-06T15:31:59;15.60;87.20
41318;DHT22;27067;51.554;7.026;2023-04-06T15:34:24;15.70;87.00
41318;DHT22;27067;51.554;7.026;2023-04-06T15:36:50;15.70;86.70
41318;DHT22;27067;51.554;7.026;2023-04-06T15:39:16;15.80;86.50
41318;DHT22;27067;51.554;7.026;2023-04-06T15:41:42;15.90;86.30
41318;DHT22;27067;51.554;7.026;2023-04-06T15:44:08;15.90;86.20
41318;DHT22;27067;51.554;7.026;2023-04-06T15:46:34;15.90;85.90
41318;DHT22;27067;51.554;7.026;2023-04-06T15:48:59;15.90;85.80
41318;DHT22;27067;51.554;7.026;2023-04-06T15:51:25;16.00;85.80
41318;DHT22;27067;51.554;7.026;2023-04-06T15:53:51;15.90;85.70
41318;DHT22;27067;51.554;7.026;2023-04-06T15:56:17;15.90;85.60
41318;DHT22;27067;51.554;7.026;2023-04-06T15:58:43;15.90;85.60
41318;DHT22;27067;51.554;7.026;2023-04-06T16:01:17;15.90;85.70
41318;DHT22;27067;51.554;7.026;2023-04-06T16:03:43;15.90;85.70
41318;DHT22;27067;51.554;7.026;2023-04-06T16:06:09;15.90;85.80
41318;DHT22;27067;51.554;7.026;2023-04-06T16:08:35;15.90;85.80
41318;DHT22;27067;51.554;7.026;2023-04-06T16:11:01;15.80;85.80
41318;DHT22;27067;51.554;7.026;2023-04-06T16:13:27;15.80;86.00
41318;DHT22;27067;51.554;7.026;2023-04-06T16:15:53;15.80;86.00
41318;DHT22;27067;51.554;7.026;2023-04-06T16:18:19;15.80;86.10
41318;DHT22;27067;51.554;7.026;2023-04-06T16:20:44;15.70;86.10
41318;DHT22;27067;51.554;7.026;2023-04-06T16:23:11;15.70;86.20
41318;DHT22;27067;51.554;7.026;2023-04-06T16:25:37;15.70;86.30
41318;DHT22;27067;51.554;7.026;2023-04-06T16:28:03;15.70;86.40
41318;DHT22;27067;51.554;7.026;2023-04-06T16:30:29;15.60;86.50
41318;DHT22;27067;51.554;7.026;2023-04-06T16:32:55;15.60;86.60
41318;DHT22;27067;51.554;7.026;2023-04-06T16:35:21;15.60;86.80
41318;DHT22;27067;51.554;7.026;2023-04-06T16:37:48;15.60;86.80
41318;DHT22;27067;51.554;7.026;2023-04-06T16:40:14;15.70;87.00
41318;DHT22;27067;51.554;7.026;2023-04-06T16:42:42;15.70;87.00
41318;DHT22;27067;51.554;7.026;2023-04-06T16:45:08;15.70;86.90
41318;DHT22;27067;51.554;7.026;2023-04-06T16:47:35;15.70;86.80
41318;DHT22;27067;51.554;7.026;2023-04-06T16:50:01;15.70;86.70
41318;DHT22;27067;51.554;7.026;2023-04-06T16:52:27;15.70;86.70
41318;DHT22;27067;51.554;7.026;2023-04-06T16:54:53;15.70;86.70
41318;DHT22;27067;51.554;7.026;2023-04-06T16:57:18;15.80;86.60
41318;DHT22;27067;51.554;7.026;2023-04-06T16:59:44;15.80;86.50
41318;DHT22;27067;51.554;7.026;2023-04-06T17:02:11;15.80;86.40
41318;DHT22;27067;51.554;7.026;2023-04-06T17:04:36;15.90;86.40
41318;DHT22;27067;51.554;7.026;2023-04-06T17:07:02;15.90;86.30
41318;DHT22;27067;51.554;7.026;2023-04-06T17:09:28;15.90;86.20
41318;DHT22;27067;51.554;7.026;2023-04-06T17:11:55;15.90;86.30
41318;DHT22;27067;51.554;7.026;2023-04-06T17:14:21;15.90;86.20
41318;DHT22;27067;51.554;7.026;2023-04-06T17:16:47;15.90;86.20
41318;DHT22;27067;51.554;7.026;2023-04-06T17:19:12;15.90;86.10
41318;DHT22;27067;51.554;7.026;2023-04-06T17:21:39;15.90;86.10